Terminal Aerodrome Forecast
Issued by NWS Louisville, KY

Home | Current Version | Previous Version | Text Only | Print | Product List | Glossary On
Versions: 1 2 3 4 5 6 7 8 9 10 11 12 13 14 15 16 17 18
968
FTUS43 KLMK 282113 AAB
TAFLEX
TAF AMD
KLEX 282113Z 2821/2918 33006KT P6SM OVC035
      TEMPO 2822/2902 BKN025
     FM290200 02005KT P6SM OVC018
      TEMPO 2902/2906 BKN022
     FM290600 05006KT 5SM BR OVC012
     FM291700 07008KT P6SM BKN022=

USA.gov is the U.S. government's official web portal to all federal, state and local government web resources and services.